createdAt,value
2023-03-18T00:00:17.646Z,73.04
2023-03-18T00:01:49.495Z,73.52
2023-03-18T00:03:21.143Z,73.64
2023-03-18T00:04:53.033Z,74.03
2023-03-18T00:06:24.944Z,74.02
2023-03-18T00:07:57.148Z,73.46
2023-03-18T00:09:28.723Z,73.97
2023-03-18T00:11:02.124Z,74.30
2023-03-18T00:12:34.524Z,74.00
2023-03-18T00:14:06.281Z,73.67
2023-03-18T00:15:38.012Z,73.54
2023-03-18T00:17:09.862Z,73.58
2023-03-18T00:18:41.781Z,74.38
2023-03-18T00:20:13.874Z,75.34
2023-03-18T00:21:45.630Z,75.52
2023-03-18T00:23:19.326Z,74.35
2023-03-18T00:24:51.458Z,74.59
2023-03-18T00:26:25.033Z,74.57
2023-03-18T00:27:56.615Z,74.03
2023-03-18T00:29:30.713Z,74.05
2023-03-18T00:31:03.553Z,73.90
2023-03-18T00:32:35.263Z,73.99
2023-03-18T00:34:09.543Z,74.36
2023-03-18T00:35:42.724Z,74.13
2023-03-18T00:37:18.917Z,73.26
2023-03-18T00:38:51.273Z,74.45
2023-03-18T00:40:30.049Z,76.03
2023-03-18T00:42:10.541Z,73.40
2023-03-18T00:43:46.856Z,75.58
2023-03-18T00:45:18.844Z,75.40
2023-03-18T00:46:50.560Z,74.30
2023-03-18T00:48:22.511Z,73.85
2023-03-18T00:49:54.142Z,74.88
2023-03-18T00:51:26.697Z,74.33
2023-03-18T00:52:59.713Z,74.89
2023-03-18T00:54:31.322Z,74.51
2023-03-18T00:56:02.945Z,75.81
2023-03-18T00:57:36.128Z,75.72
2023-03-18T00:59:07.980Z,74.71
2023-03-18T01:00:39.907Z,74.89
2023-03-18T01:02:11.617Z,75.82
2023-03-18T01:03:43.470Z,75.68
2023-03-18T01:05:15.548Z,76.79
2023-03-18T01:06:47.131Z,75.72
2023-03-18T01:08:19.234Z,75.18
2023-03-18T01:09:50.871Z,74.75
2023-03-18T01:11:22.885Z,75.00
2023-03-18T01:12:56.091Z,74.41
2023-03-18T01:14:28.036Z,75.28
2023-03-18T01:15:59.629Z,75.48
2023-03-18T01:17:31.506Z,75.17
2023-03-18T01:19:04.318Z,76.81
2023-03-18T01:20:36.620Z,76.67
2023-03-18T01:22:08.516Z,76.39
2023-03-18T01:23:40.184Z,75.22
2023-03-18T01:25:13.062Z,75.45
2023-03-18T01:26:44.686Z,75.54
2023-03-18T01:28:17.785Z,75.56
2023-03-18T01:29:49.336Z,76.26
2023-03-18T01:31:20.951Z,75.69
2023-03-18T01:32:54.540Z,75.67
2023-03-18T01:34:26.203Z,77.33
2023-03-18T01:35:59.831Z,76.30
2023-03-18T01:37:31.548Z,76.29
2023-03-18T01:39:03.325Z,76.87
2023-03-18T01:40:36.324Z,75.88
2023-03-18T01:42:07.920Z,75.54
2023-03-18T01:43:42.733Z,76.53
2023-03-18T01:45:19.403Z,75.28
2023-03-18T01:46:51.155Z,74.27
2023-03-18T01:48:24.108Z,74.52
2023-03-18T01:49:55.708Z,74.93
2023-03-18T01:51:27.303Z,75.31
2023-03-18T01:53:00.972Z,74.93
2023-03-18T01:54:34.522Z,75.09
2023-03-18T01:56:06.306Z,74.42
2023-03-18T01:57:37.970Z,75.85
2023-03-18T01:59:10.901Z,75.99
2023-03-18T02:00:51.354Z,75.80
2023-03-18T02:02:23.348Z,76.63
2023-03-18T02:03:55.334Z,76.00
2023-03-18T02:05:27.590Z,75.14
2023-03-18T02:06:59.355Z,75.72
2023-03-18T02:08:31.061Z,75.14
2023-03-18T02:10:05.165Z,75.11
2023-03-18T02:11:38.541Z,74.72
2023-03-18T02:13:10.378Z,75.25
2023-03-18T02:14:43.417Z,75.31
2023-03-18T02:16:17.643Z,74.78
2023-03-18T02:17:53.709Z,75.63
2023-03-18T02:19:45.075Z,75.45
2023-03-18T02:21:23.682Z,75.30
2023-03-18T02:22:57.616Z,75.70
2023-03-18T02:24:35.756Z,75.78
2023-03-18T02:26:10.237Z,76.43
2023-03-18T02:27:45.135Z,75.67
2023-03-18T02:29:16.741Z,75.66
2023-03-18T02:30:50.470Z,75.25
2023-03-18T02:32:22.278Z,75.83
2023-03-18T02:33:53.875Z,75.87
2023-03-18T02:35:25.698Z,75.68
2023-03-18T02:36:57.691Z,75.93
2023-03-18T02:38:29.316Z,75.78
2023-03-18T02:40:12.643Z,76.52
2023-03-18T02:41:44.892Z,78.19
2023-03-18T02:43:19.910Z,79.51
2023-03-18T02:44:51.555Z,80.19
2023-03-18T02:46:28.796Z,76.42
2023-03-18T02:48:00.458Z,75.84
2023-03-18T02:49:32.620Z,76.14
2023-03-18T02:51:05.090Z,76.48
2023-03-18T02:52:37.154Z,75.83
2023-03-18T02:54:10.277Z,76.49
2023-03-18T02:55:42.556Z,75.49
2023-03-18T02:57:14.214Z,75.77
2023-03-18T02:58:47.347Z,76.93
2023-03-18T03:00:19.495Z,76.19
2023-03-18T03:01:52.137Z,77.05
2023-03-18T03:03:23.939Z,78.96
2023-03-18T03:04:56.404Z,80.03
2023-03-18T03:06:28.030Z,78.40
2023-03-18T03:07:59.674Z,77.30
2023-03-18T03:09:31.273Z,77.01
2023-03-18T03:11:02.944Z,76.68
2023-03-18T03:12:34.586Z,76.92
2023-03-18T03:14:08.443Z,77.12
2023-03-18T03:15:40.560Z,76.47
2023-03-18T03:17:12.389Z,77.57
2023-03-18T03:18:44.295Z,77.75
2023-03-18T03:20:18.184Z,77.06
2023-03-18T03:21:50.278Z,76.91
2023-03-18T03:23:21.934Z,77.60
2023-03-18T03:24:53.769Z,77.61
2023-03-18T03:26:25.386Z,76.41
2023-03-18T03:27:57.040Z,75.98
2023-03-18T03:29:30.102Z,76.45
2023-03-18T03:31:01.788Z,76.32
2023-03-18T03:32:33.469Z,76.55
2023-03-18T03:34:05.120Z,76.46
2023-03-18T03:35:37.169Z,78.73
2023-03-18T03:37:09.018Z,77.56
2023-03-18T03:38:41.622Z,76.92
2023-03-18T03:40:15.395Z,76.87
2023-03-18T03:41:47.052Z,76.78
2023-03-18T03:43:18.669Z,76.72
2023-03-18T03:44:52.419Z,76.23
2023-03-18T03:46:24.070Z,76.93
2023-03-18T03:47:55.762Z,76.95
2023-03-18T03:49:27.654Z,76.66
2023-03-18T03:50:59.458Z,77.10
2023-03-18T03:52:31.094Z,76.55
2023-03-18T03:54:03.443Z,77.53
2023-03-18T03:55:35.488Z,79.64
2023-03-18T03:57:07.815Z,78.83
2023-03-18T03:58:39.530Z,80.45
2023-03-18T04:00:14.683Z,78.50
2023-03-18T04:01:46.312Z,77.63
2023-03-18T04:03:18.162Z,78.13
2023-03-18T04:04:50.319Z,78.61
2023-03-18T04:06:22.133Z,78.88
2023-03-18T04:07:54.253Z,78.16
2023-03-18T04:09:25.993Z,78.55
2023-03-18T04:10:57.918Z,78.62
2023-03-18T04:12:29.618Z,78.86
2023-03-18T04:14:04.538Z,78.32
2023-03-18T04:15:37.509Z,77.77
2023-03-18T04:17:09.685Z,77.76
2023-03-18T04:18:41.325Z,78.35
2023-03-18T04:20:13.345Z,77.75
2023-03-18T04:21:45.173Z,77.11
2023-03-18T04:23:16.788Z,77.37
2023-03-18T04:24:48.377Z,78.09
2023-03-18T04:26:20.030Z,77.99
2023-03-18T04:27:52.759Z,78.30
2023-03-18T04:29:24.390Z,81.84
2023-03-18T04:30:57.375Z,80.89
2023-03-18T04:32:29.010Z,81.62
2023-03-18T04:34:00.803Z,80.99
2023-03-18T04:35:32.786Z,79.73
2023-03-18T04:37:04.492Z,78.97
2023-03-18T04:38:36.122Z,79.61
2023-03-18T04:40:09.005Z,78.93
2023-03-18T04:41:40.678Z,79.79
2023-03-18T04:43:12.503Z,78.01
2023-03-18T04:44:44.169Z,77.69
2023-03-18T04:46:17.181Z,78.32
2023-03-18T04:47:49.408Z,78.33
2023-03-18T04:49:21.016Z,78.22
2023-03-18T04:50:52.607Z,78.31
2023-03-18T04:52:24.520Z,78.40
2023-03-18T04:53:56.322Z,78.48
2023-03-18T04:55:28.152Z,78.23
2023-03-18T04:56:59.756Z,78.79
2023-03-18T04:58:31.413Z,78.93
2023-03-18T05:00:04.812Z,80.21
2023-03-18T05:01:38.122Z,78.73
2023-03-18T05:03:09.766Z,80.54
2023-03-18T05:04:41.338Z,80.07
2023-03-18T05:06:20.205Z,79.07
2023-03-18T05:07:52.107Z,79.38
2023-03-18T05:09:23.966Z,79.61
2023-03-18T05:10:55.549Z,79.24
2023-03-18T05:12:27.366Z,78.87
2023-03-18T05:13:59.003Z,78.76
2023-03-18T05:15:30.874Z,81.46
2023-03-18T05:17:04.552Z,80.28
2023-03-18T05:18:36.236Z,78.47
2023-03-18T05:20:10.127Z,78.09
2023-03-18T05:21:41.779Z,77.98
2023-03-18T05:23:13.392Z,78.35
2023-03-18T05:24:46.063Z,78.69
2023-03-18T05:26:17.842Z,78.91
2023-03-18T05:27:49.619Z,79.08
2023-03-18T05:29:22.119Z,78.72
2023-03-18T05:30:53.914Z,79.51
2023-03-18T05:32:26.917Z,78.59
2023-03-18T05:33:58.492Z,79.06
2023-03-18T05:35:30.529Z,79.01
2023-03-18T05:37:02.312Z,78.56
2023-03-18T05:38:33.939Z,81.31
2023-03-18T05:40:11.562Z,82.23
2023-03-18T05:41:43.280Z,82.92
2023-03-18T05:43:14.826Z,81.59
2023-03-18T05:44:46.553Z,79.46
2023-03-18T05:46:18.289Z,79.19
2023-03-18T05:47:51.818Z,79.37
2023-03-18T05:49:23.620Z,79.42
2023-03-18T05:50:55.289Z,78.80
2023-03-18T05:52:27.020Z,79.21
2023-03-18T05:53:58.820Z,79.29
2023-03-18T05:55:30.700Z,79.31
2023-03-18T05:57:02.518Z,79.48
2023-03-18T05:58:34.481Z,78.94
2023-03-18T06:00:07.511Z,78.56
2023-03-18T06:01:39.357Z,78.81
2023-03-18T06:03:12.384Z,78.91
2023-03-18T06:04:44.016Z,78.88
2023-03-18T06:06:15.636Z,79.47
2023-03-18T06:07:47.265Z,79.82
2023-03-18T06:09:18.894Z,79.47
2023-03-18T06:10:50.646Z,79.64
2023-03-18T06:12:27.179Z,79.74
2023-03-18T06:13:59.782Z,78.98
2023-03-18T06:15:32.241Z,78.71
2023-03-18T06:17:04.121Z,78.52
2023-03-18T06:18:37.077Z,78.87
2023-03-18T06:20:10.319Z,78.84
2023-03-18T06:21:42.071Z,79.79
2023-03-18T06:23:14.865Z,79.32
2023-03-18T06:24:48.399Z,79.68
2023-03-18T06:26:20.268Z,79.58
2023-03-18T06:27:52.265Z,78.71
2023-03-18T06:29:23.963Z,79.71
2023-03-18T06:30:56.274Z,78.65
2023-03-18T06:32:28.217Z,77.89
2023-03-18T06:34:01.621Z,80.87
2023-03-18T06:35:34.077Z,79.25
2023-03-18T06:37:06.166Z,79.62
2023-03-18T06:38:38.203Z,80.81
2023-03-18T06:40:10.629Z,78.53
2023-03-18T06:41:42.303Z,77.98
2023-03-18T06:43:14.215Z,78.17
2023-03-18T06:45:06.552Z,78.31
2023-03-18T06:46:38.556Z,78.83
2023-03-18T06:48:10.532Z,84.64
2023-03-18T06:49:48.094Z,84.33
2023-03-18T06:51:20.113Z,83.88
2023-03-18T06:52:51.768Z,83.60
2023-03-18T06:54:23.504Z,84.09
2023-03-18T06:55:56.901Z,83.88
2023-03-18T06:57:29.081Z,84.07
2023-03-18T06:59:09.629Z,83.80
2023-03-18T07:00:41.730Z,81.04
2023-03-18T07:02:14.890Z,82.04
2023-03-18T07:03:46.501Z,82.86
2023-03-18T07:05:20.599Z,84.30
2023-03-18T07:06:52.602Z,83.68
2023-03-18T07:08:24.256Z,82.07
2023-03-18T07:09:59.875Z,83.54
2023-03-18T07:11:31.657Z,81.64
2023-03-18T07:13:03.511Z,80.89
2023-03-18T07:14:42.592Z,81.08
2023-03-18T07:16:18.064Z,81.75
2023-03-18T07:17:56.801Z,82.24
2023-03-18T07:19:28.790Z,82.92
2023-03-18T07:21:02.040Z,81.70
2023-03-18T07:22:33.822Z,81.93
2023-03-18T07:24:05.963Z,81.28
2023-03-18T07:25:37.694Z,82.05
2023-03-18T07:27:09.643Z,81.96
2023-03-18T07:28:41.949Z,83.13
2023-03-18T07:30:14.730Z,81.71
2023-03-18T07:31:57.238Z,82.01
2023-03-18T07:33:32.503Z,81.16
2023-03-18T07:35:05.673Z,80.93
2023-03-18T07:36:38.714Z,81.51
2023-03-18T07:38:10.349Z,82.11
2023-03-18T07:39:43.549Z,82.05
2023-03-18T07:41:15.383Z,80.87
2023-03-18T07:42:48.111Z,81.56
2023-03-18T07:44:19.863Z,81.47
2023-03-18T07:45:51.687Z,82.03
2023-03-18T07:47:24.973Z,82.37
2023-03-18T07:48:56.661Z,80.90
2023-03-18T07:50:31.688Z,81.74
2023-03-18T07:52:04.887Z,82.16
2023-03-18T07:53:37.169Z,82.62
2023-03-18T07:55:09.215Z,81.02
2023-03-18T07:56:40.854Z,81.50
2023-03-18T07:58:13.623Z,81.74
2023-03-18T07:59:45.386Z,79.64
2023-03-18T08:01:18.501Z,79.78
2023-03-18T08:02:50.178Z,80.15
2023-03-18T08:04:22.175Z,80.13
2023-03-18T08:05:53.984Z,80.62
2023-03-18T08:07:26.965Z,80.15
2023-03-18T08:08:58.913Z,81.06
2023-03-18T08:10:30.565Z,80.72
2023-03-18T08:12:02.235Z,79.96
2023-03-18T08:13:33.944Z,80.17
2023-03-18T08:15:07.771Z,80.83
2023-03-18T08:16:39.722Z,80.49
2023-03-18T08:18:14.814Z,80.05
2023-03-18T08:19:49.654Z,79.50
2023-03-18T08:21:36.494Z,79.63
2023-03-18T08:23:20.567Z,79.85
2023-03-18T08:24:55.268Z,80.25
2023-03-18T08:26:30.264Z,79.33
2023-03-18T08:28:02.698Z,78.59
2023-03-18T08:29:37.258Z,78.68
2023-03-18T08:31:09.625Z,78.36
2023-03-18T08:32:42.076Z,77.97
2023-03-18T08:34:16.943Z,78.79
2023-03-18T08:35:48.790Z,78.98
2023-03-18T08:37:20.621Z,78.25
2023-03-18T08:38:53.799Z,78.65
2023-03-18T08:40:28.320Z,79.02
2023-03-18T08:42:00.097Z,78.67
2023-03-18T08:43:31.913Z,78.76
2023-03-18T08:45:17.056Z,78.37
2023-03-18T08:46:48.902Z,78.91
2023-03-18T08:48:21.105Z,77.99
2023-03-18T08:49:53.036Z,78.28
2023-03-18T08:51:25.024Z,76.98
2023-03-18T08:52:57.879Z,77.22
2023-03-18T08:54:31.160Z,76.70
2023-03-18T08:56:03.264Z,77.14
2023-03-18T08:57:34.986Z,77.57
2023-03-18T08:59:07.070Z,77.99
2023-03-18T09:00:39.548Z,78.19
2023-03-18T09:02:12.920Z,77.69
2023-03-18T09:03:44.789Z,76.90
2023-03-18T09:05:16.822Z,76.42
2023-03-18T09:06:51.524Z,76.67
2023-03-18T09:08:23.769Z,76.31
2023-03-18T09:09:56.939Z,75.33
2023-03-18T09:11:29.243Z,76.19
2023-03-18T09:13:00.983Z,75.00
2023-03-18T09:14:33.072Z,74.61
2023-03-18T09:16:05.175Z,74.75
2023-03-18T09:17:56.560Z,74.63
2023-03-18T09:19:31.923Z,75.59
2023-03-18T09:21:04.917Z,75.51
2023-03-18T09:22:36.672Z,75.53
2023-03-18T09:24:08.374Z,76.23
2023-03-18T09:25:43.996Z,74.28
2023-03-18T09:27:15.626Z,73.50
2023-03-18T09:28:47.242Z,74.05
2023-03-18T09:30:18.900Z,73.73
2023-03-18T09:31:50.818Z,72.75
2023-03-18T09:33:22.776Z,73.86
2023-03-18T09:34:54.512Z,73.93
2023-03-18T09:36:26.450Z,73.95
2023-03-18T09:37:58.265Z,73.16
2023-03-18T09:39:30.013Z,73.10
2023-03-18T09:41:08.119Z,73.19
2023-03-18T09:42:48.609Z,73.60
2023-03-18T09:44:22.968Z,72.80
2023-03-18T09:46:00.068Z,72.01
2023-03-18T09:48:02.259Z,72.15
2023-03-18T09:49:39.756Z,71.80
2023-03-18T09:51:19.138Z,70.72
2023-03-18T09:52:54.177Z,70.29
2023-03-18T09:54:32.656Z,70.21
2023-03-18T09:56:10.962Z,65.83
2023-03-18T09:57:43.445Z,67.22
2023-03-18T09:59:20.078Z,68.41
2023-03-18T10:00:53.480Z,67.43
2023-03-18T10:02:28.357Z,68.41
2023-03-18T10:04:02.192Z,67.58
2023-03-18T10:05:35.027Z,66.88
2023-03-18T10:07:08.443Z,65.70
2023-03-18T10:08:45.454Z,66.56
2023-03-18T10:10:22.022Z,66.10
2023-03-18T10:12:02.478Z,65.40
2023-03-18T10:13:37.271Z,65.82
2023-03-18T10:15:17.708Z,63.71
2023-03-18T10:16:58.301Z,65.85
2023-03-18T10:18:31.232Z,64.16
2023-03-18T10:20:04.879Z,63.87
2023-03-18T10:21:39.815Z,62.44
2023-03-18T10:23:14.801Z,63.13
2023-03-18T10:24:48.698Z,63.27
2023-03-18T10:26:21.385Z,62.34
2023-03-18T10:28:04.965Z,62.69
2023-03-18T10:29:40.894Z,62.70
2023-03-18T10:31:21.185Z,61.59
2023-03-18T10:32:55.830Z,60.52
2023-03-18T10:34:31.099Z,62.95
2023-03-18T10:36:05.773Z,62.44
2023-03-18T10:37:43.754Z,62.13
2023-03-18T10:39:20.179Z,62.24
2023-03-18T10:42:42.596Z,62.54
2023-03-18T10:43:41.065Z,60.63
2023-03-18T10:45:21.328Z,60.94
2023-03-18T10:46:57.273Z,59.84
2023-03-18T10:48:30.900Z,58.42
2023-03-18T10:50:11.046Z,59.68
2023-03-18T10:51:44.011Z,56.98
2023-03-18T10:53:17.888Z,57.55
2023-03-18T10:54:53.133Z,56.11
2023-03-18T10:56:25.406Z,57.84
2023-03-18T10:57:57.591Z,56.69
2023-03-18T10:59:30.560Z,58.32
2023-03-18T11:01:02.437Z,58.80
2023-03-18T11:02:35.521Z,58.58
2023-03-18T11:04:09.428Z,57.14
2023-03-18T11:05:41.044Z,56.98
2023-03-18T11:07:15.093Z,54.87
2023-03-18T11:08:47.352Z,53.00
2023-03-18T11:10:21.735Z,54.39
2023-03-18T11:11:56.741Z,52.91
2023-03-18T11:13:33.302Z,55.55
2023-03-18T11:15:21.821Z,56.42
2023-03-18T11:17:05.421Z,51.90
2023-03-18T11:18:37.137Z,52.59
2023-03-18T11:20:38.238Z,52.28
2023-03-18T11:22:20.443Z,51.07
2023-03-18T11:24:34.685Z,48.25
2023-03-18T11:26:08.454Z,48.23
2023-03-18T11:27:40.992Z,50.00
2023-03-18T11:29:13.587Z,51.00
2023-03-18T11:30:56.200Z,49.63
2023-03-18T11:32:32.954Z,49.05
2023-03-18T11:34:04.671Z,48.17
2023-03-18T11:35:44.742Z,48.71
2023-03-18T11:37:25.963Z,49.27
2023-03-18T11:38:59.019Z,48.19
2023-03-18T11:40:32.719Z,48.33
2023-03-18T11:42:16.391Z,49.91
2023-03-18T11:43:55.989Z,49.50
2023-03-18T11:45:39.718Z,48.48
2023-03-18T11:47:25.660Z,48.56
2023-03-18T11:48:59.294Z,47.03
2023-03-18T11:50:42.767Z,46.83
2023-03-18T11:52:32.115Z,47.09
2023-03-18T11:54:10.620Z,47.27
2023-03-18T11:55:44.003Z,46.71
2023-03-18T11:57:27.378Z,46.88
2023-03-18T11:59:14.371Z,45.83
2023-03-18T12:00:50.517Z,45.09
2023-03-18T12:02:29.530Z,46.92
2023-03-18T12:04:08.841Z,46.53
2023-03-18T12:05:48.633Z,47.28
2023-03-18T12:07:27.557Z,46.83
2023-03-18T12:09:01.799Z,47.16
2023-03-18T12:10:36.155Z,47.09
2023-03-18T12:12:26.195Z,46.89
2023-03-18T12:14:01.584Z,48.65
2023-03-18T12:15:42.907Z,48.56
2023-03-18T12:17:41.291Z,45.56
2023-03-18T12:19:24.227Z,44.77
2023-03-18T12:20:59.679Z,45.58
2023-03-18T12:22:45.605Z,46.11
2023-03-18T12:24:25.177Z,44.69
2023-03-18T12:26:05.988Z,44.96
2023-03-18T12:27:41.926Z,44.74
2023-03-18T12:30:02.604Z,45.89
2023-03-18T12:31:44.648Z,45.94
2023-03-18T12:33:25.375Z,45.99
2023-03-18T12:35:04.111Z,45.65
2023-03-18T12:36:46.542Z,42.68
2023-03-18T12:38:57.761Z,43.61
2023-03-18T12:40:34.096Z,41.71
2023-03-18T12:42:10.583Z,43.55
2023-03-18T12:44:01.819Z,43.32
2023-03-18T12:45:35.059Z,43.03
2023-03-18T12:47:08.516Z,42.51
2023-03-18T12:48:45.765Z,40.59
2023-03-18T12:50:19.572Z,43.97
2023-03-18T12:52:01.008Z,41.61
2023-03-18T12:53:34.698Z,43.71
2023-03-18T12:55:11.473Z,42.68
2023-03-18T12:56:45.266Z,40.96
2023-03-18T12:58:19.174Z,41.49
2023-03-18T12:59:53.341Z,41.35
2023-03-18T13:01:30.940Z,40.91
2023-03-18T13:03:12.300Z,41.11
2023-03-18T13:05:07.860Z,42.17
2023-03-18T13:07:03.149Z,42.40
2023-03-18T13:08:49.410Z,42.32
2023-03-18T13:10:31.833Z,39.36
2023-03-18T13:12:10.099Z,41.74
2023-03-18T13:13:44.653Z,42.15
2023-03-18T13:15:25.597Z,41.96
2023-03-18T13:17:11.287Z,39.65
2023-03-18T13:18:51.162Z,41.25
2023-03-18T13:20:28.096Z,41.38
2023-03-18T13:22:05.982Z,40.53
2023-03-18T13:24:28.354Z,41.90
2023-03-18T13:26:05.647Z,43.03
2023-03-18T13:27:53.142Z,40.98
2023-03-18T13:29:44.089Z,39.76
2023-03-18T13:31:29.497Z,41.39
2023-03-18T13:33:12.348Z,41.35
2023-03-18T13:34:54.714Z,42.60
2023-03-18T13:36:50.839Z,40.90
2023-03-18T13:38:46.504Z,42.37
2023-03-18T13:40:25.290Z,41.18
2023-03-18T13:42:13.037Z,41.20
2023-03-18T13:43:49.226Z,38.53
2023-03-18T13:45:24.352Z,40.46
2023-03-18T13:46:58.758Z,40.79
2023-03-18T13:48:31.962Z,40.52
2023-03-18T13:50:05.458Z,40.60
2023-03-18T13:52:14.398Z,41.31
2023-03-18T13:53:46.459Z,41.50
2023-03-18T13:55:26.089Z,39.72
2023-03-18T13:56:57.798Z,39.82
2023-03-18T13:58:33.418Z,40.29
2023-03-18T14:00:14.775Z,39.22
2023-03-18T14:01:48.394Z,39.23
2023-03-18T14:03:29.018Z,38.11
2023-03-18T14:05:10.571Z,38.42
2023-03-18T14:07:26.266Z,37.34
2023-03-18T14:09:09.538Z,37.89
2023-03-18T14:11:56.562Z,36.81
2023-03-18T14:13:34.392Z,36.49
2023-03-18T14:17:59.533Z,36.58
2023-03-18T14:19:40.576Z,36.55
2023-03-18T14:21:40.284Z,37.09
2023-03-18T14:26:13.435Z,37.69
2023-03-18T14:30:57.130Z,36.42
2023-03-18T14:32:37.226Z,35.62
2023-03-18T14:34:29.774Z,37.28
2023-03-18T14:36:03.516Z,37.03
2023-03-18T14:37:35.144Z,38.44
2023-03-18T14:39:08.060Z,37.65
2023-03-18T14:40:41.116Z,36.66
2023-03-18T14:42:16.713Z,37.90
2023-03-18T14:43:54.364Z,36.69
2023-03-18T14:45:27.668Z,37.74
2023-03-18T14:47:00.440Z,36.51
2023-03-18T14:48:33.958Z,35.92
2023-03-18T14:50:06.248Z,36.27
2023-03-18T14:51:37.832Z,36.32
2023-03-18T14:53:12.475Z,38.63
2023-03-18T14:54:46.060Z,38.03
2023-03-18T14:56:18.213Z,38.26
2023-03-18T14:57:52.709Z,39.72
2023-03-18T14:59:24.603Z,38.46
2023-03-18T15:00:58.300Z,39.79
2023-03-18T15:02:32.702Z,39.66
2023-03-18T15:04:04.348Z,39.77
2023-03-18T15:05:36.907Z,41.19
2023-03-18T15:07:09.749Z,42.91
2023-03-18T15:08:48.158Z,40.28
2023-03-18T15:10:24.532Z,40.92
2023-03-18T15:11:56.306Z,42.38
2023-03-18T15:13:28.170Z,41.24
2023-03-18T15:15:00.275Z,41.59
2023-03-18T15:16:33.128Z,39.45
2023-03-18T15:18:16.810Z,41.33
2023-03-18T15:19:48.435Z,39.41
2023-03-18T15:21:21.504Z,38.32
2023-03-18T15:22:53.095Z,41.26
2023-03-18T15:24:26.121Z,38.91
2023-03-18T15:25:59.096Z,38.08
2023-03-18T15:27:31.018Z,39.19
2023-03-18T15:29:17.931Z,40.11
2023-03-18T15:30:54.381Z,42.05
2023-03-18T15:32:27.213Z,42.06
2023-03-18T15:34:05.724Z,39.15
2023-03-18T15:35:37.727Z,40.26
2023-03-18T15:37:42.923Z,38.59
2023-03-18T15:39:32.174Z,40.84
2023-03-18T15:41:05.769Z,39.83
2023-03-18T15:42:40.928Z,39.16
2023-03-18T15:44:14.336Z,40.50
2023-03-18T15:45:47.049Z,40.64
2023-03-18T15:47:20.394Z,40.83
2023-03-18T15:48:54.686Z,41.42
2023-03-18T15:50:28.388Z,40.95
2023-03-18T15:52:00.740Z,41.30
2023-03-18T15:53:34.647Z,42.11
2023-03-18T15:55:25.787Z,42.64
2023-03-18T15:56:58.944Z,43.51
2023-03-18T15:58:35.025Z,43.35
2023-03-18T16:00:09.227Z,43.49
2023-03-18T16:01:40.870Z,42.03
2023-03-18T16:03:15.358Z,42.20
2023-03-18T16:04:48.523Z,42.92
2023-03-18T16:06:22.411Z,42.17
2023-03-18T16:07:54.201Z,42.18
2023-03-18T16:09:25.945Z,42.52
2023-03-18T16:11:00.229Z,42.58
2023-03-18T16:12:33.405Z,42.73
2023-03-18T16:14:05.091Z,43.05
2023-03-18T16:15:37.521Z,42.61
2023-03-18T16:17:11.961Z,43.35
2023-03-18T16:18:43.675Z,43.85
2023-03-18T16:20:17.606Z,44.02
2023-03-18T16:21:49.215Z,44.01
2023-03-18T16:23:21.070Z,44.28
2023-03-18T16:24:52.644Z,44.63
2023-03-18T16:26:24.274Z,44.90
2023-03-18T16:27:58.808Z,44.82
2023-03-18T16:29:31.722Z,46.57
2023-03-18T16:31:03.456Z,45.73
2023-03-18T16:32:35.756Z,46.54
2023-03-18T16:34:12.569Z,46.86
2023-03-18T16:35:44.442Z,48.86
2023-03-18T16:37:22.412Z,48.46
2023-03-18T16:38:54.097Z,47.03
2023-03-18T16:40:27.197Z,46.38
2023-03-18T16:41:58.804Z,47.44
2023-03-18T16:43:32.118Z,46.69
2023-03-18T16:45:05.395Z,47.59
2023-03-18T16:46:37.366Z,47.44
2023-03-18T16:48:11.084Z,48.59
2023-03-18T16:49:43.352Z,47.88
2023-03-18T16:51:14.964Z,48.77
2023-03-18T16:52:47.474Z,47.59
2023-03-18T16:54:19.963Z,46.92
2023-03-18T16:55:52.742Z,46.71
2023-03-18T16:57:24.871Z,47.70
2023-03-18T16:58:57.978Z,47.59
2023-03-18T17:00:31.911Z,46.72
2023-03-18T17:02:04.147Z,46.11
2023-03-18T17:03:36.050Z,45.71
2023-03-18T17:05:10.256Z,46.56
2023-03-18T17:06:42.303Z,46.29
2023-03-18T17:08:14.198Z,46.33
2023-03-18T17:09:45.958Z,46.22
2023-03-18T17:11:18.345Z,46.50
2023-03-18T17:12:51.208Z,45.28
2023-03-18T17:14:29.580Z,46.13
2023-03-18T17:16:01.837Z,46.27
2023-03-18T17:17:35.696Z,48.18
2023-03-18T17:19:10.074Z,47.02
2023-03-18T17:20:44.499Z,46.68
2023-03-18T17:22:19.959Z,47.10
2023-03-18T17:23:51.527Z,47.62
2023-03-18T17:25:24.435Z,47.67
2023-03-18T17:26:56.000Z,47.30
2023-03-18T17:28:30.380Z,47.56
2023-03-18T17:30:06.712Z,47.12
2023-03-18T17:31:38.349Z,48.25
2023-03-18T17:33:23.947Z,47.01
2023-03-18T17:34:56.234Z,47.95
2023-03-18T17:36:28.489Z,51.29
2023-03-18T17:38:06.326Z,50.42
2023-03-18T17:39:44.807Z,50.27
2023-03-18T17:41:21.148Z,51.35
2023-03-18T17:42:55.840Z,50.13
2023-03-18T17:44:30.192Z,49.06
2023-03-18T17:46:04.877Z,50.07
2023-03-18T17:47:36.747Z,51.75
2023-03-18T17:49:13.956Z,52.73
2023-03-18T17:50:46.036Z,53.12
2023-03-18T17:52:21.656Z,54.32
2023-03-18T17:53:58.674Z,54.23
2023-03-18T17:55:36.368Z,53.93
2023-03-18T17:57:10.170Z,55.80
2023-03-18T17:58:42.793Z,56.19
2023-03-18T18:00:17.703Z,51.11
2023-03-18T18:01:50.756Z,49.96
2023-03-18T18:03:24.343Z,51.86
2023-03-18T18:04:56.237Z,52.24
2023-03-18T18:06:29.268Z,53.49
2023-03-18T18:08:01.078Z,53.71
2023-03-18T18:09:32.913Z,56.37
2023-03-18T18:11:10.002Z,57.95
2023-03-18T18:12:43.256Z,57.50
2023-03-18T18:14:19.751Z,57.91
2023-03-18T18:15:51.432Z,57.95
2023-03-18T18:17:24.617Z,56.90
2023-03-18T18:18:56.192Z,57.02
2023-03-18T18:20:27.795Z,56.14
2023-03-18T18:22:03.463Z,57.57
2023-03-18T18:23:35.797Z,56.40
2023-03-18T18:25:14.166Z,56.81
2023-03-18T18:26:45.836Z,57.63
2023-03-18T18:28:19.636Z,58.95
2023-03-18T18:29:51.768Z,58.20
2023-03-18T18:31:24.139Z,59.43
2023-03-18T18:32:57.696Z,59.80
2023-03-18T18:34:29.328Z,60.21
2023-03-18T18:36:01.504Z,58.56
2023-03-18T18:37:33.656Z,60.14
2023-03-18T18:39:06.419Z,59.90
2023-03-18T18:40:38.182Z,58.67
2023-03-18T18:42:14.088Z,59.14
2023-03-18T18:43:45.813Z,57.95
2023-03-18T18:45:19.064Z,56.25
2023-03-18T18:46:50.781Z,58.54
2023-03-18T18:48:26.688Z,58.68
2023-03-18T18:49:58.309Z,60.20
2023-03-18T18:51:29.961Z,59.37
2023-03-18T18:53:02.481Z,59.74
2023-03-18T18:54:34.156Z,60.63
2023-03-18T18:56:11.996Z,60.81
2023-03-18T18:57:43.658Z,58.20
2023-03-18T18:59:24.697Z,59.14
2023-03-18T19:00:56.360Z,58.20
2023-03-18T19:02:30.127Z,57.34
2023-03-18T19:04:03.235Z,54.85
2023-03-18T19:05:35.851Z,54.83
2023-03-18T19:07:07.833Z,54.16
2023-03-18T19:08:39.497Z,53.61
2023-03-18T19:10:12.353Z,54.26
2023-03-18T19:11:44.293Z,53.51
2023-03-18T19:13:16.685Z,54.94
2023-03-18T19:14:48.728Z,53.61
2023-03-18T19:16:27.416Z,56.92
2023-03-18T19:17:59.020Z,56.18
2023-03-18T19:19:33.430Z,55.85
2023-03-18T19:21:05.400Z,53.92
2023-03-18T19:22:37.076Z,53.96
2023-03-18T19:24:30.424Z,53.84
2023-03-18T19:26:02.496Z,54.14
2023-03-18T19:27:34.074Z,53.99
2023-03-18T19:29:07.034Z,54.05
2023-03-18T19:30:38.636Z,53.43
2023-03-18T19:32:15.042Z,53.36
2023-03-18T19:33:55.630Z,52.60
2023-03-18T19:35:45.006Z,52.32
2023-03-18T19:37:17.815Z,51.69
2023-03-18T19:38:49.454Z,52.33
2023-03-18T19:40:23.039Z,51.67
2023-03-18T19:41:54.792Z,51.88
2023-03-18T19:43:26.472Z,52.42
2023-03-18T19:45:01.226Z,52.57
2023-03-18T19:46:36.071Z,52.45
2023-03-18T19:48:08.750Z,52.21
2023-03-18T19:49:40.870Z,52.42
2023-03-18T19:51:16.806Z,52.41
2023-03-18T19:52:48.683Z,52.17
2023-03-18T19:54:27.336Z,52.64
2023-03-18T19:55:59.047Z,52.32
2023-03-18T19:57:31.523Z,52.32
2023-03-18T19:59:05.602Z,51.68
2023-03-18T20:00:38.440Z,52.87
2023-03-18T20:02:21.930Z,52.13
2023-03-18T20:03:57.089Z,51.63
2023-03-18T20:05:28.876Z,51.64
2023-03-18T20:07:03.772Z,51.38
2023-03-18T20:08:35.347Z,52.32
2023-03-18T20:10:08.627Z,53.77
2023-03-18T20:11:43.261Z,53.63
2023-03-18T20:13:15.882Z,53.45
2023-03-18T20:14:47.453Z,52.24
2023-03-18T20:16:19.813Z,52.56
2023-03-18T20:17:51.733Z,52.63
2023-03-18T20:19:23.399Z,52.99
2023-03-18T20:20:55.633Z,53.50
2023-03-18T20:22:29.937Z,54.24
2023-03-18T20:24:03.274Z,53.96
2023-03-18T20:25:36.761Z,54.20
2023-03-18T20:27:08.450Z,54.33
2023-03-18T20:28:42.514Z,53.96
2023-03-18T20:30:24.294Z,54.02
2023-03-18T20:31:56.695Z,55.19